Lugerville, Wisconsin
Current Conditions -  °F | °C
As of 7:35 AM on Friday 24 Oct 2014 (Local Time) from KPBH Reporting Station
Haze Haze  
Wind Chill: 41°   Ceiling: 200
Heat Index: 44°   Visibility: 1.2mi
Dew Point: 44°   Wind: 6mph
Humidity: 100%   Direction: 200°SSW
Pressure: 29.97"   Gusts: NA
Location:  45.7439°N, 90.2959°W
Report Text: KPBH 241235Z AUTO 20005KT 1 1/4SM BR OVC002 07/07 A2997 RMK AO2 T00670067
Loading
Personal Weather Stations






























Interactive Weather Map
Tropical Storm Tracking
New forecast layout! Learn more

10-Day Weather Forecast

Advertisements
Track Severe Weather on mobile